createdAt,value
2022-12-18T00:02:07.874Z,94.71
2022-12-18T00:04:34.829Z,94.83
2022-12-18T00:07:01.559Z,94.94
2022-12-18T00:09:31.040Z,94.91
2022-12-18T00:14:45.439Z,94.98
2022-12-18T00:17:12.287Z,95.12
2022-12-18T00:19:39.092Z,94.83
2022-12-18T00:22:07.138Z,95.02
2022-12-18T00:24:33.958Z,95.20
2022-12-18T00:27:00.707Z,95.37
2022-12-18T00:29:27.470Z,95.25
2022-12-18T00:31:54.313Z,95.33
2022-12-18T00:34:21.053Z,95.31
2022-12-18T00:36:48.830Z,95.35
2022-12-18T00:39:15.595Z,95.57
2022-12-18T00:42:03.458Z,95.64
2022-12-18T00:44:31.402Z,95.57
2022-12-18T00:46:58.245Z,95.56
2022-12-18T00:49:25.130Z,95.50
2022-12-18T00:51:52.010Z,95.42
2022-12-18T00:54:18.986Z,95.69
2022-12-18T00:56:49.040Z,95.52
2022-12-18T00:59:20.034Z,95.91
2022-12-18T01:01:47.922Z,95.77
2022-12-18T01:04:15.009Z,95.77
2022-12-18T01:06:45.007Z,95.86
2022-12-18T01:09:11.832Z,95.83
2022-12-18T01:11:38.800Z,95.98
2022-12-18T01:14:05.581Z,96.12
2022-12-18T01:16:32.574Z,96.38
2022-12-18T01:18:59.395Z,96.33
2022-12-18T01:21:27.682Z,96.42
2022-12-18T01:23:55.726Z,96.07
2022-12-18T01:26:24.241Z,96.20
2022-12-18T01:28:51.229Z,96.28
2022-12-18T01:31:22.386Z,96.35
2022-12-18T01:33:49.542Z,96.33
2022-12-18T01:36:21.041Z,96.43
2022-12-18T01:38:48.582Z,96.44
2022-12-18T01:41:16.833Z,96.45
2022-12-18T01:43:45.058Z,96.55
2022-12-18T01:46:12.333Z,96.52
2022-12-18T01:48:40.071Z,96.26
2022-12-18T01:51:07.557Z,96.56
2022-12-18T01:53:34.730Z,96.30
2022-12-18T01:56:02.190Z,96.53
2022-12-18T01:58:50.619Z,96.32
2022-12-18T02:01:17.782Z,96.29
2022-12-18T02:03:45.253Z,96.33
2022-12-18T02:06:18.511Z,96.42
2022-12-18T02:09:13.142Z,96.18
2022-12-18T02:11:48.851Z,96.29
2022-12-18T02:14:24.640Z,96.22
2022-12-18T02:17:08.248Z,96.34
2022-12-18T02:19:35.109Z,96.07
2022-12-18T02:22:10.922Z,96.39
2022-12-18T02:24:56.111Z,96.07
2022-12-18T02:27:23.722Z,96.25
2022-12-18T02:29:58.589Z,96.36
2022-12-18T02:32:30.775Z,96.24
2022-12-18T02:34:59.579Z,96.25
2022-12-18T02:37:29.165Z,96.29
2022-12-18T02:39:59.500Z,96.34
2022-12-18T02:42:27.069Z,96.30
2022-12-18T02:44:53.764Z,96.50
2022-12-18T02:47:25.948Z,96.66
2022-12-18T02:49:59.026Z,96.66
2022-12-18T02:52:50.140Z,96.60
2022-12-18T02:55:26.528Z,96.81
2022-12-18T02:57:59.739Z,96.72
2022-12-18T03:00:39.709Z,97.19
2022-12-18T03:03:21.203Z,97.28
2022-12-18T03:06:08.340Z,97.03
2022-12-18T03:08:38.360Z,97.31
2022-12-18T03:11:07.271Z,97.34
2022-12-18T03:13:49.267Z,97.25
2022-12-18T03:16:19.095Z,95.26
2022-12-18T03:18:57.210Z,94.48
2022-12-18T03:21:29.571Z,93.99
2022-12-18T03:23:57.050Z,93.54
2022-12-18T03:26:28.191Z,93.60
2022-12-18T03:29:03.361Z,93.61
2022-12-18T03:31:32.641Z,95.47
2022-12-18T03:34:02.124Z,96.28
2022-12-18T03:36:38.600Z,96.73
2022-12-18T03:39:05.988Z,96.94
2022-12-18T03:41:45.763Z,97.04
2022-12-18T03:44:33.461Z,96.97
2022-12-18T03:47:07.418Z,97.23
2022-12-18T03:49:53.398Z,97.30
2022-12-18T03:52:26.569Z,97.29
2022-12-18T03:54:56.346Z,97.10
2022-12-18T03:57:25.802Z,97.24
2022-12-18T03:59:57.886Z,97.30
2022-12-18T04:02:31.103Z,97.46
2022-12-18T04:05:02.909Z,97.23
2022-12-18T04:07:30.046Z,97.34
2022-12-18T04:09:59.941Z,96.32
2022-12-18T04:12:27.880Z,94.99
2022-12-18T04:14:54.682Z,94.00
2022-12-18T04:17:22.980Z,93.80
2022-12-18T04:19:50.387Z,93.37
2022-12-18T04:22:17.559Z,93.39
2022-12-18T04:24:47.879Z,93.07
2022-12-18T04:27:22.970Z,93.29
2022-12-18T04:29:51.108Z,93.02
2022-12-18T04:32:18.960Z,93.17
2022-12-18T04:34:49.771Z,93.05
2022-12-18T04:37:17.204Z,92.80
2022-12-18T04:39:44.704Z,92.95
2022-12-18T04:42:20.372Z,92.98
2022-12-18T04:44:47.180Z,92.81
2022-12-18T04:47:13.869Z,93.04
2022-12-18T04:49:40.650Z,93.06
2022-12-18T04:52:07.821Z,92.99
2022-12-18T04:54:34.685Z,92.97
2022-12-18T04:57:01.434Z,92.83
2022-12-18T04:59:28.350Z,92.82
2022-12-18T05:01:55.105Z,92.81
2022-12-18T05:04:22.213Z,92.63
2022-12-18T05:06:48.948Z,92.80
2022-12-18T05:09:15.692Z,92.73
2022-12-18T05:11:42.483Z,92.53
2022-12-18T05:14:09.322Z,92.46
2022-12-18T05:16:36.069Z,92.49
2022-12-18T05:19:02.843Z,92.33
2022-12-18T05:21:29.521Z,92.44
2022-12-18T05:23:56.270Z,92.20
2022-12-18T05:26:23.074Z,92.30
2022-12-18T05:28:49.848Z,92.34
2022-12-18T05:31:16.607Z,92.44
2022-12-18T05:33:43.943Z,92.36
2022-12-18T05:36:12.371Z,92.21
2022-12-18T05:38:41.191Z,92.27
2022-12-18T05:41:08.482Z,92.38
2022-12-18T05:43:37.019Z,92.16
2022-12-18T05:46:05.204Z,92.14
2022-12-18T05:48:32.004Z,92.26
2022-12-18T05:51:04.291Z,92.13
2022-12-18T05:53:31.070Z,92.40
2022-12-18T05:56:01.219Z,92.17
2022-12-18T05:58:28.001Z,92.40
2022-12-18T06:00:54.723Z,92.15
2022-12-18T06:03:21.640Z,92.15
2022-12-18T06:05:48.383Z,92.41
2022-12-18T06:08:15.334Z,92.38
2022-12-18T06:10:42.845Z,92.23
2022-12-18T06:13:09.999Z,92.30
2022-12-18T06:15:40.110Z,92.44
2022-12-18T06:18:07.025Z,92.06
2022-12-18T06:20:34.187Z,91.96
2022-12-18T06:23:01.204Z,92.23
2022-12-18T06:25:27.932Z,92.34
2022-12-18T06:27:54.680Z,92.09
2022-12-18T06:30:21.609Z,92.34
2022-12-18T06:32:56.428Z,92.14
2022-12-18T06:35:24.078Z,92.12
2022-12-18T06:37:50.790Z,92.02
2022-12-18T06:40:17.800Z,92.06
2022-12-18T06:42:44.478Z,92.02
2022-12-18T06:45:12.213Z,92.06
2022-12-18T06:47:41.584Z,92.26
2022-12-18T06:50:08.568Z,91.95
2022-12-18T06:52:35.280Z,91.99
2022-12-18T06:55:02.091Z,92.10
2022-12-18T06:57:28.839Z,92.00
2022-12-18T06:59:55.612Z,92.10
2022-12-18T07:02:22.451Z,91.96
2022-12-18T07:04:50.889Z,92.09
2022-12-18T07:07:17.648Z,91.82
2022-12-18T07:09:44.490Z,91.90
2022-12-18T07:12:11.242Z,91.88
2022-12-18T07:14:37.989Z,91.75
2022-12-18T07:17:05.048Z,91.81
2022-12-18T07:19:33.334Z,91.92
2022-12-18T07:22:00.142Z,91.80
2022-12-18T07:24:27.015Z,91.71
2022-12-18T07:26:53.852Z,91.65
2022-12-18T07:29:20.621Z,91.72
2022-12-18T07:31:47.414Z,91.82
2022-12-18T07:34:14.945Z,91.49
2022-12-18T07:36:41.990Z,91.65
2022-12-18T07:39:08.811Z,91.56
2022-12-18T07:41:35.494Z,91.46
2022-12-18T07:44:12.054Z,91.47
2022-12-18T07:46:38.940Z,91.29
2022-12-18T07:49:05.661Z,91.45
2022-12-18T07:51:32.514Z,91.36
2022-12-18T07:53:59.221Z,91.34
2022-12-18T07:56:28.737Z,91.31
2022-12-18T07:58:57.084Z,91.15
2022-12-18T08:01:23.930Z,91.07
2022-12-18T08:03:52.489Z,91.09
2022-12-18T08:06:23.867Z,90.92
2022-12-18T08:08:55.205Z,91.18
2022-12-18T08:11:22.413Z,90.97
2022-12-18T08:13:49.475Z,91.07
2022-12-18T08:16:16.815Z,91.10
2022-12-18T08:18:43.714Z,90.92
2022-12-18T08:21:12.254Z,90.97
2022-12-18T08:23:42.722Z,90.75
2022-12-18T08:26:10.815Z,91.05
2022-12-18T08:28:37.560Z,90.84
2022-12-18T08:31:05.125Z,90.84
2022-12-18T08:33:31.913Z,90.64
2022-12-18T08:36:02.109Z,90.46
2022-12-18T08:38:29.211Z,90.50
2022-12-18T08:41:02.682Z,90.08
2022-12-18T08:43:47.789Z,90.17
2022-12-18T08:46:14.804Z,90.09
2022-12-18T08:48:41.541Z,89.82
2022-12-18T08:51:10.644Z,90.09
2022-12-18T08:53:38.006Z,89.99
2022-12-18T08:56:05.780Z,89.53
2022-12-18T08:58:32.510Z,89.73
2022-12-18T09:01:06.635Z,89.79
2022-12-18T09:03:33.743Z,89.70
2022-12-18T09:06:00.695Z,89.71
2022-12-18T09:08:27.717Z,89.29
2022-12-18T09:10:54.461Z,89.28
2022-12-18T09:13:21.485Z,89.29
2022-12-18T09:15:49.352Z,89.43
2022-12-18T09:18:17.675Z,89.23
2022-12-18T09:20:44.885Z,89.16
2022-12-18T09:23:12.442Z,89.16
2022-12-18T09:25:39.170Z,89.21
2022-12-18T09:28:07.406Z,89.04
2022-12-18T09:30:36.862Z,88.84
2022-12-18T09:33:04.113Z,88.80
2022-12-18T09:35:33.021Z,88.78
2022-12-18T09:38:00.576Z,88.74
2022-12-18T09:40:36.998Z,88.85
2022-12-18T09:43:05.831Z,88.80
2022-12-18T09:45:45.758Z,88.58
2022-12-18T09:48:20.002Z,88.46
2022-12-18T09:50:47.715Z,88.60
2022-12-18T09:53:19.796Z,88.44
2022-12-18T09:55:47.752Z,88.52
2022-12-18T09:58:18.076Z,88.16
2022-12-18T10:00:45.078Z,88.15
2022-12-18T10:03:15.951Z,87.95
2022-12-18T10:05:46.351Z,87.63
2022-12-18T10:08:35.451Z,87.43
2022-12-18T10:11:05.007Z,87.13
2022-12-18T10:13:47.182Z,85.86
2022-12-18T10:16:17.360Z,85.26
2022-12-18T10:19:09.276Z,84.56
2022-12-18T10:22:08.342Z,84.38
2022-12-18T10:24:40.831Z,83.92
2022-12-18T10:27:14.171Z,83.43
2022-12-18T10:29:41.661Z,82.88
2022-12-18T10:32:10.825Z,82.92
2022-12-18T10:34:38.097Z,82.61
2022-12-18T10:37:07.800Z,82.15
2022-12-18T10:39:34.580Z,81.63
2022-12-18T10:42:10.901Z,80.88
2022-12-18T10:44:37.663Z,80.95
2022-12-18T10:47:08.753Z,80.70
2022-12-18T10:49:41.725Z,80.21
2022-12-18T10:52:15.385Z,80.18
2022-12-18T10:54:47.851Z,79.85
2022-12-18T10:57:34.409Z,79.07
2022-12-18T11:00:14.528Z,79.15
2022-12-18T11:02:41.598Z,78.76
2022-12-18T11:05:25.747Z,78.98
2022-12-18T11:07:55.111Z,78.75
2022-12-18T11:10:23.557Z,78.44
2022-12-18T11:12:50.399Z,78.04
2022-12-18T11:15:19.968Z,77.62
2022-12-18T11:17:48.867Z,77.61
2022-12-18T11:20:36.031Z,77.78
2022-12-18T11:23:13.249Z,77.57
2022-12-18T11:25:40.805Z,77.54
2022-12-18T11:28:27.091Z,76.66
2022-12-18T11:31:12.492Z,75.60
2022-12-18T11:33:53.160Z,75.28
2022-12-18T11:36:32.211Z,74.75
2022-12-18T11:39:01.705Z,74.94
2022-12-18T11:42:09.580Z,74.62
2022-12-18T11:44:51.356Z,73.43
2022-12-18T11:47:37.256Z,73.48
2022-12-18T11:50:12.651Z,73.31
2022-12-18T11:52:40.947Z,73.56
2022-12-18T11:55:16.301Z,73.68
2022-12-18T11:57:43.213Z,73.10
2022-12-18T12:00:19.951Z,73.03
2022-12-18T12:02:58.562Z,73.12
2022-12-18T12:05:52.016Z,73.40
2022-12-18T12:08:18.769Z,73.17
2022-12-18T12:11:00.850Z,73.02
2022-12-18T12:13:27.608Z,72.75
2022-12-18T12:15:54.341Z,73.09
2022-12-18T12:18:39.539Z,72.95
2022-12-18T12:21:22.358Z,72.33
2022-12-18T12:23:52.244Z,72.58
2022-12-18T12:26:39.137Z,72.25
2022-12-18T12:29:10.610Z,72.05
2022-12-18T12:31:53.030Z,71.84
2022-12-18T12:34:32.033Z,71.44
2022-12-18T12:37:01.861Z,71.62
2022-12-18T12:39:35.664Z,71.49
2022-12-18T12:42:21.704Z,71.53
2022-12-18T12:44:56.024Z,71.32
2022-12-18T12:47:26.305Z,71.12
2022-12-18T12:49:53.379Z,71.18
2022-12-18T12:52:31.708Z,71.23
2022-12-18T12:54:59.706Z,71.17
2022-12-18T12:57:32.213Z,71.12
2022-12-18T13:00:15.041Z,71.37
2022-12-18T13:02:44.863Z,70.78
2022-12-18T13:05:25.390Z,70.78
2022-12-18T13:08:13.248Z,70.71
2022-12-18T13:10:42.026Z,70.82
2022-12-18T13:13:13.525Z,71.09
2022-12-18T13:16:07.738Z,71.00
2022-12-18T13:18:35.318Z,70.95
2022-12-18T13:21:05.076Z,71.14
2022-12-18T13:23:34.203Z,71.27
2022-12-18T13:26:27.951Z,71.13
2022-12-18T13:28:57.143Z,71.30
2022-12-18T13:31:42.558Z,71.16
2022-12-18T13:34:28.267Z,71.46
2022-12-18T13:36:57.402Z,71.23
2022-12-18T13:39:32.737Z,71.49
2022-12-18T13:42:07.349Z,71.38
2022-12-18T13:44:40.660Z,71.24
2022-12-18T13:47:29.188Z,71.36
2022-12-18T13:49:56.213Z,71.38
2022-12-18T13:52:25.533Z,71.38
2022-12-18T13:54:57.770Z,71.50
2022-12-18T13:57:32.119Z,71.48
2022-12-18T13:59:59.259Z,71.03
2022-12-18T14:02:27.406Z,70.98
2022-12-18T14:04:55.230Z,71.02
2022-12-18T14:07:26.513Z,71.01
2022-12-18T14:10:12.562Z,70.67
2022-12-18T14:13:03.104Z,70.72
2022-12-18T14:15:35.062Z,70.63
2022-12-18T14:18:03.046Z,70.48
2022-12-18T14:20:32.423Z,70.80
2022-12-18T14:23:01.009Z,70.53
2022-12-18T14:25:29.169Z,70.30
2022-12-18T14:28:08.814Z,70.38
2022-12-18T14:30:54.656Z,70.32
2022-12-18T14:33:26.044Z,70.41
2022-12-18T14:35:58.011Z,70.44
2022-12-18T14:38:29.296Z,70.39
2022-12-18T14:41:00.853Z,70.49
2022-12-18T14:43:28.592Z,70.57
2022-12-18T14:45:55.705Z,70.44
2022-12-18T14:48:26.063Z,70.64
2022-12-18T14:51:01.283Z,70.91
2022-12-18T14:53:32.226Z,70.84
2022-12-18T14:55:59.054Z,71.12
2022-12-18T14:58:25.832Z,70.98
2022-12-18T15:00:54.144Z,70.94
2022-12-18T15:03:22.700Z,71.08
2022-12-18T15:05:50.037Z,71.34
2022-12-18T15:08:29.656Z,71.48
2022-12-18T15:10:57.522Z,71.58
2022-12-18T15:13:25.916Z,71.45
2022-12-18T15:15:53.887Z,71.48
2022-12-18T15:18:22.679Z,71.40
2022-12-18T15:20:57.112Z,71.58
2022-12-18T15:23:29.652Z,71.63
2022-12-18T15:26:04.734Z,71.44
2022-12-18T15:28:32.863Z,71.68
2022-12-18T15:31:15.872Z,71.73
2022-12-18T15:33:54.282Z,71.60
2022-12-18T15:36:26.347Z,71.47
2022-12-18T15:39:05.185Z,71.43
2022-12-18T15:41:37.806Z,71.52
2022-12-18T15:44:23.385Z,71.48
2022-12-18T15:46:50.494Z,71.49
2022-12-18T15:49:17.145Z,71.59
2022-12-18T15:51:43.951Z,71.49
2022-12-18T15:54:14.496Z,71.75
2022-12-18T15:56:59.931Z,71.69
2022-12-18T15:59:26.966Z,71.78
2022-12-18T16:01:56.790Z,71.87
2022-12-18T16:04:24.636Z,71.73
2022-12-18T16:07:14.831Z,71.77
2022-12-18T16:09:40.543Z,71.99
2022-12-18T16:12:07.865Z,71.68
2022-12-18T16:14:34.672Z,71.81
2022-12-18T16:17:06.472Z,71.85
2022-12-18T16:19:33.659Z,71.96
2022-12-18T16:22:00.542Z,71.80
2022-12-18T16:24:29.511Z,71.98
2022-12-18T16:26:57.534Z,71.80
2022-12-18T16:29:28.409Z,72.02
2022-12-18T16:32:00.400Z,72.10
2022-12-18T16:34:29.595Z,72.07
2022-12-18T16:37:05.827Z,72.08
2022-12-18T16:39:35.854Z,71.99
2022-12-18T16:42:05.621Z,72.01
2022-12-18T16:44:34.191Z,71.94
2022-12-18T16:47:03.279Z,72.08
2022-12-18T16:49:30.765Z,72.33
2022-12-18T16:52:02.132Z,72.25
2022-12-18T16:54:31.816Z,72.49
2022-12-18T16:56:59.223Z,72.24
2022-12-18T16:59:28.815Z,72.32
2022-12-18T17:01:57.511Z,72.18
2022-12-18T17:04:26.040Z,72.08
2022-12-18T17:06:54.195Z,72.21
2022-12-18T17:09:28.380Z,72.11
2022-12-18T17:12:04.602Z,72.31
2022-12-18T17:14:32.375Z,72.09
2022-12-18T17:17:20.395Z,72.09
2022-12-18T17:19:50.552Z,72.12
2022-12-18T17:22:18.496Z,72.15
2022-12-18T17:24:46.305Z,72.30
2022-12-18T17:27:15.590Z,72.26
2022-12-18T17:29:47.181Z,72.20
2022-12-18T17:32:18.170Z,72.18
2022-12-18T17:34:47.514Z,72.12
2022-12-18T17:37:14.887Z,72.35
2022-12-18T17:39:42.550Z,72.09
2022-12-18T17:42:15.797Z,72.19
2022-12-18T17:44:44.128Z,72.16
2022-12-18T17:47:13.419Z,72.11
2022-12-18T17:49:40.681Z,72.11
2022-12-18T17:52:08.217Z,72.11
2022-12-18T17:54:41.107Z,72.09
2022-12-18T17:57:11.174Z,72.00
2022-12-18T17:59:39.121Z,72.02
2022-12-18T18:02:07.498Z,72.18
2022-12-18T18:04:35.716Z,72.17
2022-12-18T18:07:02.464Z,72.19
2022-12-18T18:09:29.412Z,72.04
2022-12-18T18:12:14.826Z,71.89
2022-12-18T18:14:41.635Z,71.84
2022-12-18T18:17:08.684Z,71.92
2022-12-18T18:19:35.813Z,72.02
2022-12-18T18:22:03.647Z,72.16
2022-12-18T18:24:30.841Z,71.97
2022-12-18T18:26:59.714Z,72.14
2022-12-18T18:29:30.460Z,72.08
2022-12-18T18:31:57.797Z,72.25
2022-12-18T18:34:26.513Z,71.93
2022-12-18T18:36:53.873Z,72.10
2022-12-18T18:39:20.555Z,72.04
2022-12-18T18:41:48.720Z,72.29
2022-12-18T18:44:16.286Z,72.27
2022-12-18T18:46:43.161Z,73.70
2022-12-18T18:49:10.163Z,74.42
2022-12-18T18:51:36.956Z,74.60
2022-12-18T18:54:03.732Z,74.61
2022-12-18T18:59:18.456Z,75.21
2022-12-18T19:01:45.372Z,75.15
2022-12-18T19:04:12.642Z,75.24
2022-12-18T19:06:39.768Z,75.32
2022-12-18T19:09:07.918Z,75.24
2022-12-18T19:11:53.334Z,75.29
2022-12-18T19:14:23.790Z,75.38
2022-12-18T19:16:50.582Z,75.48
2022-12-18T19:19:21.152Z,75.30
2022-12-18T19:21:48.653Z,75.66
2022-12-18T19:24:15.364Z,75.77
2022-12-18T19:26:42.182Z,75.69
2022-12-18T19:29:09.538Z,75.72
2022-12-18T19:31:37.129Z,75.76
2022-12-18T19:34:08.216Z,75.73
2022-12-18T19:36:36.872Z,75.72
2022-12-18T19:39:07.942Z,76.05
2022-12-18T19:41:34.743Z,76.25
2022-12-18T19:44:07.458Z,76.00
2022-12-18T19:46:36.145Z,75.84
2022-12-18T19:49:08.195Z,75.78
2022-12-18T19:51:36.931Z,75.83
2022-12-18T19:54:05.144Z,76.00
2022-12-18T19:56:33.292Z,76.04
2022-12-18T19:59:00.115Z,76.01
2022-12-18T20:01:27.482Z,75.71
2022-12-18T20:03:56.123Z,75.67
2022-12-18T20:06:34.955Z,75.67
2022-12-18T20:09:04.023Z,75.40
2022-12-18T20:11:31.455Z,75.54
2022-12-18T20:14:01.422Z,75.47
2022-12-18T20:16:29.363Z,75.36
2022-12-18T20:18:57.600Z,75.36
2022-12-18T20:21:25.486Z,75.25
2022-12-18T20:23:52.473Z,75.20
2022-12-18T20:26:19.545Z,75.05
2022-12-18T20:28:46.436Z,75.06
2022-12-18T20:31:14.162Z,75.24
2022-12-18T20:33:41.959Z,75.19
2022-12-18T20:36:12.523Z,75.23
2022-12-18T20:38:39.923Z,75.12
2022-12-18T20:41:08.423Z,75.13
2022-12-18T20:43:35.198Z,75.04
2022-12-18T20:46:05.713Z,75.08
2022-12-18T20:48:33.321Z,75.07
2022-12-18T20:51:02.073Z,75.08
2022-12-18T20:53:31.409Z,75.40
2022-12-18T20:55:58.171Z,75.15
2022-12-18T20:58:24.978Z,75.21
2022-12-18T21:01:02.463Z,75.35
2022-12-18T21:03:29.379Z,75.22
2022-12-18T21:05:57.750Z,75.22
2022-12-18T21:08:25.143Z,75.52
2022-12-18T21:10:52.026Z,75.16
2022-12-18T21:13:22.601Z,75.27
2022-12-18T21:15:53.155Z,75.15
2022-12-18T21:18:20.723Z,75.21
2022-12-18T21:20:47.562Z,75.07
2022-12-18T21:23:16.556Z,74.96
2022-12-18T21:25:46.657Z,75.24
2022-12-18T21:28:16.278Z,74.97
2022-12-18T21:30:43.184Z,75.13
2022-12-18T21:33:09.891Z,75.12
2022-12-18T21:35:36.764Z,75.05
2022-12-18T21:38:05.774Z,75.00
2022-12-18T21:40:32.754Z,75.15
2022-12-18T21:43:18.102Z,74.96
2022-12-18T21:45:44.949Z,74.92
2022-12-18T21:48:12.317Z,75.01
2022-12-18T21:50:39.206Z,74.83
2022-12-18T21:53:06.032Z,74.75
2022-12-18T21:55:32.805Z,74.73
2022-12-18T21:57:59.544Z,74.58
2022-12-18T22:00:26.396Z,74.47
2022-12-18T22:03:17.573Z,74.38
2022-12-18T22:05:40.834Z,74.73
2022-12-18T22:08:07.925Z,74.57
2022-12-18T22:10:35.351Z,74.63
2022-12-18T22:13:02.564Z,74.83
2022-12-18T22:15:29.428Z,74.83
2022-12-18T22:18:00.442Z,74.60
2022-12-18T22:20:28.092Z,74.62
2022-12-18T22:22:56.453Z,74.88
2022-12-18T22:25:23.183Z,74.71
2022-12-18T22:28:08.591Z,74.67
2022-12-18T22:30:35.722Z,74.94
2022-12-18T22:33:02.691Z,74.68
2022-12-18T22:35:29.915Z,74.88
2022-12-18T22:37:58.223Z,74.73
2022-12-18T22:40:25.927Z,74.94
2022-12-18T22:42:54.037Z,74.80
2022-12-18T22:45:21.801Z,74.73
2022-12-18T22:47:48.523Z,74.96
2022-12-18T22:50:15.491Z,74.56
2022-12-18T22:52:42.328Z,74.64
2022-12-18T22:55:09.231Z,74.65
2022-12-18T22:57:36.041Z,74.63
2022-12-18T23:00:05.484Z,74.70
2022-12-18T23:02:32.257Z,74.50
2022-12-18T23:04:59.129Z,74.62
2022-12-18T23:07:25.912Z,74.79
2022-12-18T23:10:00.764Z,74.44
2022-12-18T23:12:28.464Z,74.47
2022-12-18T23:14:55.412Z,74.59
2022-12-18T23:17:23.115Z,74.45
2022-12-18T23:19:49.794Z,74.79
2022-12-18T23:22:17.534Z,74.46
2022-12-18T23:24:44.290Z,74.46
2022-12-18T23:27:11.519Z,74.38
2022-12-18T23:29:39.126Z,74.64
2022-12-18T23:32:05.855Z,75.02
2022-12-18T23:34:32.627Z,74.45
2022-12-18T23:37:01.255Z,73.47
2022-12-18T23:39:29.616Z,72.90
2022-12-18T23:42:00.296Z,72.81
2022-12-18T23:44:27.684Z,72.55
2022-12-18T23:46:54.807Z,72.87
2022-12-18T23:49:22.032Z,72.49
2022-12-18T23:51:48.998Z,72.73
2022-12-18T23:54:16.047Z,72.59
2022-12-18T23:56:42.826Z,72.46
2022-12-18T23:59:09.698Z,72.46
